Meteo Giornale » Osservazioni meteo Italia » Bari-Palese Macchie

ore: 19:20 - Osservazioni Meteo Bari-Palese Macchie
Lat. 41° 8' N Lon. 16° 47' E Alt. 34 metri s.l.m.

sereno Europe/Rome

21 °C

Sereno

Temp. 24 Ore

11 °C

24 °C

Nord

5.5 Km/h

Dew point 11 °C

Umidità 52 %

Visibilità  10 Km

Il sole sorge alle ore 05:58

Il sole tramonta alle ore 19:43

Data e Ora Cielo e Fenomeni T °C DP °C Um. % Pres. hPa Vis. km Vento km/h
Oggi h: 19:20 sereno Sereno 21 11 52 1017 10 N 5.5
Oggi h: 18:50 sereno Sereno 21 13 60 1017 10 N 5.5
Oggi h: 18:20 sereno Sereno 22 11 49 1017 10 N 5.5
Oggi h: 17:50 sereno Sereno 23 10 43 1017 10 E/NE 9.3
Oggi h: 17:20 sereno Sereno 23 7 35 1017 10 E/SE 7.4
Oggi h: 16:50 sereno Sereno 23 11 46 1017 10 E 11.1
Oggi h: 16:20 sereno Sereno 22 12 53 1017 10 E 13
Oggi h: 15:50 sereno Sereno 22 13 56 1017 10 E 14.8
Oggi h: 15:20 sereno Sereno 23 12 49 1017 10 E 14.8
Oggi h: 14:50 sereno Sereno 23 12 49 1018 10 E 14.8
Oggi h: 14:20 sereno Sereno 23 13 53 1018 10 E 13
Oggi h: 13:50 sereno Sereno 23 11 46 1018 10 E/NE 13
Oggi h: 13:20 sereno Sereno 23 12 49 1018 10 NE 11.1
Oggi h: 12:50 sereno Sereno 23 12 49 1018 10 E/NE 11.1
Oggi h: 12:20 sereno Sereno 24 12 47 1018 10 NE 11.1
Oggi h: 11:50 sereno Sereno 23 12 49 1018 10 E/NE 9.3
Oggi h: 11:20 sereno Sereno 23 12 49 1018 10 NE 13
Oggi h: 10:50 sereno Sereno 24 12 47 1018 10 N/NE 11.1
Oggi h: 10:20 sereno Sereno 24 12 47 1018 10 N 5.5
Oggi h: 09:50 sereno Sereno 23 13 53 1018 10 N 5.5
Oggi h: 09:20 sereno Sereno 22 13 56 1018 10 NO 7.4
Oggi h: 08:50 sereno Sereno 22 13 56 1018 10 N 1.8
Oggi h: 08:20 sereno Sereno 20 14 68 1018 10 N 1.8
Oggi h: 07:50 sereno Sereno 18 13 72 1018 10 N 3.7
Oggi h: 07:20 sereno Sereno 13 10 81 1017 10 S/SO 9.3
Oggi h: 06:50 sereno Sereno 12 10 87 1017 10 SO 11.1
Oggi h: 06:20 sereno Sereno 11 9 87 1017 10 SO 9.3
Oggi h: 05:50 sereno Sereno 11 9 87 1017 10 SO 9.3
Oggi h: 05:20 sereno Sereno 12 9 81 1016 10 SO 9.3
Oggi h: 04:50 sereno Sereno 12 9 81 1016 10 SO 9.3
Oggi h: 04:20 sereno Sereno 12 9 81 1016 10 SO 11.1
Oggi h: 03:50 sereno Sereno 18 7 48 1016 10 SO 7.4
Oggi h: 03:20 sereno Sereno 11 7 76 1017 10 O/SO 7.4
Oggi h: 02:20 sereno Sereno 11 7 76 1017 10 O/SO 7.4
Oggi h: 01:50 sereno Sereno 11 9 87 1017 10 O/SO 13
Oggi h: 01:20 sereno Sereno 13 9 76 1017 10 O 13
Oggi h: 00:20 sereno Sereno 13 9 76 1017 10 O 7.4
Ieri h: 23:50 sereno Sereno 13 9 76 1017 10 O 9.3
Ieri h: 23:20 sereno Sereno 12 9 81 1017 10 N 3.7
Ieri h: 22:50 sereno Sereno 13 9 76 1017 10 O/SO 7.4
Ieri h: 22:20 sereno Sereno 13 10 81 1016 10 SO 9.3
Ieri h: 21:50 sereno Sereno 13 10 81 1016 10 SO 7.4
Ieri h: 21:20 sereno Sereno 14 10 76 1016 10 N 5.5
Ieri h: 20:50 sereno Sereno 14 11 82 1016 10 N 0
Ieri h: 20:20 sereno Sereno 15 11 76 1016 10 N 1.8
Ieri h: 19:50 sereno Sereno 18 12 67 1016 10 N 1.8